الصفحة الرئيسية
METAR-TAF:

METAR-TAF

مطار :

ديمينغ, نيومكسيكو, الولايات المتحدة

دائرة عرض: 32-15-44N, خط طول: 107-43-14W, ارتفاع: 1315 متر

مراقبة الطقس الحالي

تاريخ ووقت الإصدار 20 دقيقة قبل الساعة 23:53UTC
ريح 8 عقدة من الغرب
درجة الحرارة 15°درجة مئوية
الرطوبة 59%
ضغط 1012 hPa
الرؤية: 16.1 كم
سماء صافية

METAR: KDMN 202353Z AUTO 26008KT 10SM CLR 15/07 A2989 RMK AO2 SLP076 T01500072 10172 20139 53008

زمن: 17:13 (00:13 UTC)

توقعات

تاريخ ووقت الإصدار 32 دقيقة قبل الساعة 23:41UTC
التوقعات صالحة من21 الساعة 00 UTC إلى 21 الساعة 24 UTC
ريح 9 عقدة من الغرب/الجنوب الغربي
الرؤية: 10 كم
غيوم قليلة على ارتفاع 5000 قدم
غيوم مفككة على ارتفاع 7000 قدم
من 21 الساعة 1500 UTC
ريح 11 عقدة من الجنوب الشرقي تتزايد حتى 18 عقدة
الرؤية: 10 كم
غيوم متفرقة على ارتفاع 5000 قدم
غيوم مفككة على ارتفاع 7000 قدم
زخات من الأمطار الخفيفة
من 21 الساعة 1800 UTC
ريح 10 عقدة من الغرب
الرؤية: 6.4 كم
غيوم مفككة على ارتفاع 4000 قدم
ملبد بالغيوم على ارتفاع 7000 قدم
زخات من المطر

TAF: KDMN 202341Z 2100/2124 24009KT P6SM FEW050 BKN070 FM211500 14011G18KT P6SM -SHRA SCT050 BKN070 FM211800 27010KT 4SM SHRA BKN040 OVC070

أرصاد الطقس والتوقعات من أكثر من 4000 مطار (تقارير الطقس للمطار METAR والتنبؤ بالطقس بالمطارTAF).

المحطات المتاحة هي النقط الصفراء والحمراء على الخريطة.

حرك المؤشر فوق النقطة لمعرفة اسم المحطة.

ثم انقر لمعرفة أرصاد وتوقعات الطقس.

لتغيير الخارطة: اضغط على الأزرار الخضراء مع رمز الصليب الأسود للتكبير. على الزر الأخضر مع شرطة للتصغير، أو على الأسهم الخضراء للخرائط المجاورة.


METAR-TAF: